createdAt,value
2018-09-11T00:00:31.518Z,99.90
2018-09-11T00:03:00.035Z,99.90
2018-09-11T00:05:28.729Z,99.90
2018-09-11T00:07:57.281Z,99.90
2018-09-11T00:10:25.849Z,99.90
2018-09-11T00:12:54.424Z,99.90
2018-09-11T00:15:23.479Z,99.90
2018-09-11T00:17:52.014Z,99.90
2018-09-11T00:20:20.569Z,99.90
2018-09-11T00:22:49.176Z,99.90
2018-09-11T00:25:17.757Z,99.90
2018-09-11T00:27:46.266Z,99.90
2018-09-11T00:30:14.820Z,99.90
2018-09-11T00:32:43.329Z,99.90
2018-09-11T00:35:11.861Z,99.90
2018-09-11T00:37:40.465Z,99.90
2018-09-11T00:40:09.074Z,99.90
2018-09-11T00:42:37.589Z,99.90
2018-09-11T00:45:06.377Z,99.90
2018-09-11T00:47:34.881Z,99.90
2018-09-11T00:50:03.484Z,99.90
2018-09-11T00:52:32.001Z,99.90
2018-09-11T00:55:00.569Z,99.90
2018-09-11T00:57:29.288Z,99.90
2018-09-11T00:59:57.863Z,99.90
2018-09-11T01:02:26.380Z,99.90
2018-09-11T01:04:54.972Z,99.90
2018-09-11T01:07:23.501Z,99.90
2018-09-11T01:09:52.070Z,99.90
2018-09-11T01:12:20.625Z,99.90
2018-09-11T01:14:49.402Z,99.90
2018-09-11T01:17:17.912Z,99.90
2018-09-11T01:19:46.470Z,99.90
2018-09-11T01:22:14.985Z,99.90
2018-09-11T01:24:43.535Z,99.90
2018-09-11T01:27:12.048Z,99.90
2018-09-11T01:29:40.591Z,99.90
2018-09-11T01:32:09.129Z,99.90
2018-09-11T01:34:37.660Z,99.90
2018-09-11T01:37:06.174Z,99.90
2018-09-11T01:39:34.714Z,99.90
2018-09-11T01:42:03.245Z,99.90
2018-09-11T01:44:32.085Z,99.90
2018-09-11T01:47:00.588Z,99.90
2018-09-11T01:49:29.121Z,99.90
2018-09-11T01:51:57.634Z,99.90
2018-09-11T01:54:26.178Z,99.90
2018-09-11T01:56:54.701Z,99.90
2018-09-11T01:59:23.240Z,99.90
2018-09-11T02:01:51.762Z,99.90
2018-09-11T02:04:20.296Z,99.90
2018-09-11T02:06:48.812Z,99.90
2018-09-11T02:09:17.397Z,99.90
2018-09-11T02:11:45.905Z,99.90
2018-09-11T02:14:14.434Z,99.90
2018-09-11T02:16:42.944Z,99.90
2018-09-11T02:19:12.236Z,99.90
2018-09-11T02:21:40.737Z,99.90
2018-09-11T02:24:15.571Z,99.90
2018-09-11T02:26:44.085Z,99.90
2018-09-11T02:29:12.618Z,99.90
2018-09-11T02:31:41.112Z,99.90
2018-09-11T02:34:09.733Z,99.90
2018-09-11T02:36:38.355Z,99.90
2018-09-11T02:39:09.471Z,99.90
2018-09-11T02:41:38.117Z,99.90
2018-09-11T02:44:07.326Z,99.90
2018-09-11T02:46:35.860Z,99.90
2018-09-11T02:49:04.490Z,99.90
2018-09-11T02:51:33.505Z,99.90
2018-09-11T02:54:02.181Z,99.90
2018-09-11T02:56:30.736Z,99.90
2018-09-11T02:58:59.269Z,99.90
2018-09-11T03:01:27.954Z,99.90
2018-09-11T03:03:56.502Z,99.90
2018-09-11T03:06:25.093Z,99.90
2018-09-11T03:08:53.590Z,99.90
2018-09-11T03:11:22.140Z,99.90
2018-09-11T03:13:50.710Z,99.90
2018-09-11T03:16:19.261Z,99.90
2018-09-11T03:18:48.315Z,99.90
2018-09-11T03:21:16.770Z,99.90
2018-09-11T03:23:45.274Z,99.90
2018-09-11T03:26:13.803Z,99.90
2018-09-11T03:28:42.318Z,99.90
2018-09-11T03:31:10.953Z,99.90
2018-09-11T03:33:39.466Z,99.90
2018-09-11T03:36:08.009Z,99.90
2018-09-11T03:38:36.521Z,99.90
2018-09-11T03:41:05.762Z,99.90
2018-09-11T03:43:34.294Z,99.90
2018-09-11T03:46:02.816Z,99.90
2018-09-11T03:48:31.329Z,99.90
2018-09-11T03:50:59.866Z,99.90
2018-09-11T03:53:28.381Z,99.90
2018-09-11T03:55:56.920Z,99.90
2018-09-11T03:58:25.465Z,99.90
2018-09-11T04:00:54.003Z,99.90
2018-09-11T04:03:22.530Z,99.90
2018-09-11T04:05:51.065Z,99.90
2018-09-11T04:08:19.575Z,99.90
2018-09-11T04:10:48.128Z,99.90
2018-09-11T04:13:16.633Z,99.90
2018-09-11T04:15:45.186Z,99.90
2018-09-11T04:18:13.902Z,99.90
2018-09-11T04:20:42.434Z,99.90
2018-09-11T04:23:10.944Z,99.90
2018-09-11T04:25:39.909Z,99.90
2018-09-11T04:28:08.341Z,99.90
2018-09-11T04:30:36.852Z,99.90
2018-09-11T04:33:05.353Z,99.90
2018-09-11T04:35:33.898Z,99.90
2018-09-11T04:38:02.967Z,99.90
2018-09-11T04:40:37.187Z,99.90
2018-09-11T04:43:05.862Z,99.90
2018-09-11T04:45:34.382Z,99.90
2018-09-11T04:48:02.934Z,99.90
2018-09-11T04:50:31.464Z,99.90
2018-09-11T04:52:59.964Z,99.90
2018-09-11T04:55:28.466Z,99.90
2018-09-11T04:57:57.000Z,99.90
2018-09-11T05:00:25.498Z,99.90
2018-09-11T05:02:54.025Z,99.90
2018-09-11T05:05:22.587Z,99.90
2018-09-11T05:07:51.239Z,99.90
2018-09-11T05:10:19.793Z,99.90
2018-09-11T05:12:48.309Z,99.90
2018-09-11T05:15:16.809Z,99.90
2018-09-11T05:17:45.417Z,99.90
2018-09-11T05:20:13.922Z,99.90
2018-09-11T05:22:42.705Z,99.90
2018-09-11T05:25:11.361Z,99.90
2018-09-11T05:27:39.894Z,99.90
2018-09-11T05:30:08.422Z,99.90
2018-09-11T05:32:36.970Z,99.90
2018-09-11T05:35:05.586Z,99.90
2018-09-11T05:37:34.148Z,99.90
2018-09-11T05:40:02.979Z,99.90
2018-09-11T05:42:31.531Z,99.90
2018-09-11T05:45:01.025Z,99.90
2018-09-11T05:47:29.546Z,99.90
2018-09-11T05:49:58.197Z,99.90
2018-09-11T05:52:26.763Z,99.90
2018-09-11T05:54:55.393Z,99.90
2018-09-11T05:57:23.922Z,99.90
2018-09-11T05:59:52.460Z,99.90
2018-09-11T06:02:21.611Z,99.90
2018-09-11T06:04:50.186Z,99.90
2018-09-11T06:07:18.706Z,99.90
2018-09-11T06:09:47.286Z,99.90
2018-09-11T06:12:16.085Z,99.90
2018-09-11T06:14:44.660Z,99.90
2018-09-11T06:17:13.233Z,99.90
2018-09-11T06:19:41.804Z,99.90
2018-09-11T06:22:10.441Z,99.90
2018-09-11T06:24:38.988Z,99.90
2018-09-11T06:27:08.814Z,99.90
2018-09-11T06:29:37.974Z,99.90
2018-09-11T06:32:06.554Z,99.90
2018-09-11T06:34:35.111Z,99.90
2018-09-11T06:37:03.745Z,99.90
2018-09-11T06:39:32.318Z,99.90
2018-09-11T06:42:00.869Z,99.90
2018-09-11T06:44:29.471Z,99.90
2018-09-11T06:46:58.027Z,99.90
2018-09-11T06:49:27.547Z,99.90
2018-09-11T06:51:56.054Z,99.90
2018-09-11T06:54:24.598Z,99.90
2018-09-11T06:56:53.177Z,99.90
2018-09-11T06:59:21.744Z,99.90
2018-09-11T07:01:50.358Z,99.90
2018-09-11T07:04:18.865Z,99.90
2018-09-11T07:06:47.482Z,99.90
2018-09-11T07:09:16.097Z,99.90
2018-09-11T07:11:44.642Z,99.90
2018-09-11T07:14:13.167Z,99.90
2018-09-11T07:16:41.690Z,99.90
2018-09-11T07:19:10.306Z,99.90
2018-09-11T07:21:38.837Z,99.90
2018-09-11T07:24:07.522Z,99.90
2018-09-11T07:26:36.063Z,99.90
2018-09-11T07:29:05.081Z,99.90
2018-09-11T07:31:34.174Z,99.90
2018-09-11T07:34:02.764Z,99.90
2018-09-11T07:36:31.509Z,99.90
2018-09-11T07:39:00.375Z,99.90
2018-09-11T07:41:29.047Z,99.90
2018-09-11T07:43:58.253Z,99.90
2018-09-11T07:46:26.921Z,99.90
2018-09-11T07:48:56.618Z,99.90
2018-09-11T07:51:25.197Z,99.90
2018-09-11T07:53:53.706Z,99.90
2018-09-11T07:56:22.244Z,99.90
2018-09-11T07:58:50.765Z,99.90
2018-09-11T08:01:19.361Z,99.90
2018-09-11T08:03:47.905Z,99.90
2018-09-11T08:06:16.544Z,99.90
2018-09-11T08:08:45.902Z,99.90
2018-09-11T08:11:14.862Z,99.90
2018-09-11T08:13:43.661Z,99.90
2018-09-11T08:16:12.214Z,99.90
2018-09-11T08:18:40.981Z,99.90
2018-09-11T08:21:09.557Z,99.90
2018-09-11T08:23:38.097Z,99.90
2018-09-11T08:26:06.861Z,99.90
2018-09-11T08:28:35.401Z,99.90
2018-09-11T08:31:03.969Z,99.90
2018-09-11T08:33:32.537Z,99.90
2018-09-11T08:36:01.060Z,99.90
2018-09-11T08:38:29.630Z,99.90
2018-09-11T08:40:58.168Z,99.90
2018-09-11T08:43:26.783Z,99.90
2018-09-11T08:45:55.318Z,99.90
2018-09-11T08:48:23.957Z,99.90
2018-09-11T08:50:53.255Z,99.90
2018-09-11T08:53:21.889Z,99.90
2018-09-11T08:55:50.558Z,99.90
2018-09-11T08:58:19.154Z,99.90
2018-09-11T09:00:47.709Z,99.90
2018-09-11T09:03:16.275Z,99.90
2018-09-11T09:05:44.813Z,99.90
2018-09-11T09:08:13.381Z,99.90
2018-09-11T09:10:42.083Z,99.90
2018-09-11T09:13:10.650Z,99.90
2018-09-11T09:15:39.203Z,99.90
2018-09-11T09:18:07.755Z,99.90
2018-09-11T09:20:36.326Z,99.90
2018-09-11T09:23:04.914Z,99.90
2018-09-11T09:25:33.429Z,99.90
2018-09-11T09:28:01.992Z,99.90
2018-09-11T09:30:30.553Z,99.90
2018-09-11T09:32:59.173Z,99.90
2018-09-11T09:35:27.809Z,99.90
2018-09-11T09:37:56.391Z,99.90
2018-09-11T09:40:24.884Z,99.90
2018-09-11T09:42:53.491Z,99.90
2018-09-11T09:45:22.002Z,99.90
2018-09-11T09:47:50.559Z,99.90
2018-09-11T09:50:23.256Z,99.90
2018-09-11T09:52:52.006Z,99.90
2018-09-11T09:55:20.554Z,99.90
2018-09-11T09:57:49.122Z,99.90
2018-09-11T10:00:22.976Z,99.90
2018-09-11T10:02:51.541Z,99.90
2018-09-11T10:05:20.157Z,99.90
2018-09-11T10:07:48.682Z,99.90
2018-09-11T10:10:24.234Z,99.90
2018-09-11T10:12:52.777Z,99.90
2018-09-11T10:15:22.203Z,99.90
2018-09-11T10:17:50.945Z,99.90
2018-09-11T10:20:19.977Z,99.90
2018-09-11T10:22:48.529Z,99.90
2018-09-11T10:25:17.185Z,99.90
2018-09-11T10:27:45.780Z,99.90
2018-09-11T10:30:14.267Z,99.90
2018-09-11T10:32:42.928Z,99.90
2018-09-11T10:35:11.506Z,99.90
2018-09-11T10:37:47.247Z,99.90
2018-09-11T10:40:15.929Z,99.90
2018-09-11T10:42:44.591Z,99.90
2018-09-11T10:45:15.432Z,99.70
2018-09-11T10:47:43.970Z,99.60
2018-09-11T10:50:12.589Z,99.40
2018-09-11T10:52:41.223Z,99.80
2018-09-11T10:55:09.770Z,99.60
2018-09-11T10:57:38.333Z,99.90
2018-09-11T11:00:07.877Z,98.70
2018-09-11T11:02:36.409Z,98.60
2018-09-11T11:05:04.961Z,98.30
2018-09-11T11:07:33.529Z,98.20
2018-09-11T11:10:02.094Z,97.90
2018-09-11T11:12:30.641Z,97.60
2018-09-11T11:14:59.633Z,98.00
2018-09-11T11:17:28.245Z,97.60
2018-09-11T11:19:56.793Z,97.80
2018-09-11T11:22:26.745Z,97.50
2018-09-11T11:24:56.737Z,97.60
2018-09-11T11:27:25.375Z,97.10
2018-09-11T11:29:54.033Z,97.30
2018-09-11T11:32:22.545Z,97.30
2018-09-11T11:34:51.226Z,97.00
2018-09-11T11:37:19.933Z,96.80
2018-09-11T11:39:48.494Z,96.20
2018-09-11T11:42:17.042Z,96.20
2018-09-11T11:44:45.558Z,96.50
2018-09-11T11:47:14.142Z,96.70
2018-09-11T11:49:42.724Z,95.90
2018-09-11T11:52:11.507Z,95.70
2018-09-11T11:54:40.397Z,95.50
2018-09-11T11:57:08.916Z,95.30
2018-09-11T11:59:37.451Z,94.90
2018-09-11T12:02:06.035Z,94.20
2018-09-11T12:04:34.602Z,94.20
2018-09-11T12:07:03.253Z,94.30
2018-09-11T12:09:31.817Z,94.00
2018-09-11T12:12:00.361Z,93.70
2018-09-11T12:14:28.883Z,93.20
2018-09-11T12:16:57.447Z,93.50
2018-09-11T12:19:25.961Z,93.70
2018-09-11T12:21:54.474Z,93.80
2018-09-11T12:24:23.051Z,93.20
2018-09-11T12:26:51.640Z,92.50
2018-09-11T12:29:20.253Z,92.00
2018-09-11T12:31:48.754Z,92.30
2018-09-11T12:34:17.309Z,92.40
2018-09-11T12:36:45.835Z,91.70
2018-09-11T12:39:14.601Z,91.70
2018-09-11T12:41:43.128Z,91.60
2018-09-11T12:44:11.681Z,91.60
2018-09-11T12:46:40.562Z,91.60
2018-09-11T12:49:08.760Z,92.20
2018-09-11T12:51:37.261Z,92.60
2018-09-11T12:54:05.922Z,92.70
2018-09-11T12:56:34.544Z,92.00
2018-09-11T12:59:03.105Z,92.20
2018-09-11T13:01:31.664Z,92.40
2018-09-11T13:04:00.221Z,91.70
2018-09-11T13:06:28.938Z,91.20
2018-09-11T13:08:57.662Z,91.30
2018-09-11T13:11:26.302Z,91.30
2018-09-11T13:13:54.946Z,91.40
2018-09-11T13:16:23.530Z,91.50
2018-09-11T13:18:52.168Z,91.60
2018-09-11T13:21:20.762Z,91.70
2018-09-11T13:23:49.324Z,91.20
2018-09-11T13:26:17.846Z,90.40
2018-09-11T13:28:46.408Z,89.80
2018-09-11T13:31:14.959Z,90.00
2018-09-11T13:33:43.542Z,88.90
2018-09-11T13:36:12.026Z,89.40
2018-09-11T13:38:40.577Z,89.30
2018-09-11T13:41:09.309Z,89.20
2018-09-11T13:43:37.861Z,88.00
2018-09-11T13:46:06.427Z,88.80
2018-09-11T13:48:34.959Z,88.10
2018-09-11T13:51:03.517Z,87.90
2018-09-11T13:53:32.054Z,88.00
2018-09-11T13:56:00.615Z,88.60
2018-09-11T13:58:29.242Z,88.00
2018-09-11T14:00:57.852Z,88.50
2018-09-11T14:03:26.381Z,88.70
2018-09-11T14:05:54.923Z,88.40
2018-09-11T14:08:23.482Z,87.30
2018-09-11T14:10:52.136Z,88.00
2018-09-11T14:13:20.691Z,88.10
2018-09-11T14:15:49.329Z,88.00
2018-09-11T14:18:17.882Z,86.30
2018-09-11T14:20:46.427Z,85.80
2018-09-11T14:25:49.778Z,85.80
2018-09-11T14:28:18.789Z,86.20
2018-09-11T14:30:47.376Z,87.20
2018-09-11T14:33:15.895Z,85.80
2018-09-11T14:35:44.423Z,85.00
2018-09-11T14:38:12.981Z,85.90
2018-09-11T14:40:41.531Z,85.60
2018-09-11T14:43:10.072Z,84.90
2018-09-11T14:45:38.685Z,83.70
2018-09-11T14:48:07.202Z,83.80
2018-09-11T14:50:35.789Z,83.70
2018-09-11T14:53:04.308Z,84.20
2018-09-11T14:55:32.833Z,83.80
2018-09-11T14:58:01.360Z,83.30
2018-09-11T15:00:29.897Z,83.20
2018-09-11T15:02:58.418Z,83.50
2018-09-11T15:05:26.961Z,83.60
2018-09-11T15:07:55.506Z,83.40
2018-09-11T15:10:24.153Z,83.30
2018-09-11T15:12:52.674Z,83.00
2018-09-11T15:15:21.389Z,82.90
2018-09-11T15:17:49.893Z,82.70
2018-09-11T15:20:18.446Z,82.70
2018-09-11T15:22:47.008Z,83.00
2018-09-11T15:25:15.557Z,83.20
2018-09-11T15:27:44.068Z,82.90
2018-09-11T15:30:13.589Z,83.50
2018-09-11T15:32:42.093Z,84.10
2018-09-11T15:35:10.644Z,83.70
2018-09-11T15:37:39.182Z,82.90
2018-09-11T15:40:07.757Z,82.00
2018-09-11T15:42:36.285Z,82.00
2018-09-11T15:45:04.896Z,82.50
2018-09-11T15:47:33.444Z,82.20
2018-09-11T15:50:02.005Z,81.80
2018-09-11T15:52:30.517Z,81.90
2018-09-11T15:54:59.055Z,82.70
2018-09-11T15:57:27.565Z,83.00
2018-09-11T15:59:56.108Z,83.10
2018-09-11T16:02:24.659Z,83.50
2018-09-11T16:04:53.158Z,83.70
2018-09-11T16:07:21.729Z,84.10
2018-09-11T16:09:50.293Z,82.50
2018-09-11T16:12:18.816Z,83.60
2018-09-11T16:14:47.316Z,83.20
2018-09-11T16:17:15.830Z,83.10
2018-09-11T16:19:44.333Z,83.70
2018-09-11T16:22:12.892Z,81.60
2018-09-11T16:24:41.382Z,82.00
2018-09-11T16:27:09.922Z,82.80
2018-09-11T16:29:38.501Z,83.00
2018-09-11T16:32:06.702Z,83.00
2018-09-11T16:34:35.223Z,84.10
2018-09-11T16:37:03.760Z,83.50
2018-09-11T16:39:33.210Z,84.60
2018-09-11T16:42:01.747Z,85.60
2018-09-11T16:44:30.338Z,85.50
2018-09-11T16:46:58.859Z,85.40
2018-09-11T16:49:27.378Z,84.40
2018-09-11T16:51:55.970Z,85.00
2018-09-11T16:54:24.474Z,85.30
2018-09-11T16:56:53.167Z,85.50
2018-09-11T16:59:21.753Z,85.90
2018-09-11T17:01:50.408Z,87.10
2018-09-11T17:04:18.919Z,87.80
2018-09-11T17:06:47.438Z,87.80
2018-09-11T17:09:15.950Z,88.30
2018-09-11T17:11:44.497Z,88.60
2018-09-11T17:14:13.000Z,89.10
2018-09-11T17:16:41.534Z,90.10
2018-09-11T17:19:10.072Z,90.10
2018-09-11T17:21:38.624Z,90.40
2018-09-11T17:24:07.144Z,90.90
2018-09-11T17:26:35.710Z,91.30
2018-09-11T17:29:04.251Z,91.30
2018-09-11T17:31:32.789Z,91.50
2018-09-11T17:34:01.416Z,91.80
2018-09-11T17:36:29.953Z,92.20
2018-09-11T17:38:59.409Z,92.40
2018-09-11T17:41:27.920Z,93.10
2018-09-11T17:43:56.405Z,93.60
2018-09-11T17:46:24.926Z,94.50
2018-09-11T17:48:53.488Z,94.80
2018-09-11T17:51:22.062Z,95.40
2018-09-11T17:53:50.574Z,95.60
2018-09-11T17:56:19.096Z,95.90
2018-09-11T17:58:47.648Z,96.10
2018-09-11T18:01:16.177Z,96.60
2018-09-11T18:03:44.714Z,96.80
2018-09-11T18:06:13.234Z,96.90
2018-09-11T18:08:41.901Z,97.20
2018-09-11T18:11:10.450Z,97.30
2018-09-11T18:13:38.998Z,97.60
2018-09-11T18:16:07.613Z,98.40
2018-09-11T18:18:36.137Z,99.00
2018-09-11T18:21:04.661Z,98.90
2018-09-11T18:23:33.249Z,99.00
2018-09-11T18:26:02.277Z,99.60
2018-09-11T18:28:30.944Z,99.90
2018-09-11T18:30:59.562Z,99.90
2018-09-11T18:33:28.106Z,99.90
2018-09-11T18:35:56.614Z,99.90
2018-09-11T18:38:25.154Z,99.90
2018-09-11T18:40:53.690Z,99.90
2018-09-11T18:43:22.649Z,99.90
2018-09-11T18:45:51.211Z,99.90
2018-09-11T18:48:19.762Z,99.90
2018-09-11T18:50:48.297Z,99.90
2018-09-11T18:53:16.836Z,99.90
2018-09-11T18:55:45.349Z,99.90
2018-09-11T18:58:13.898Z,99.90
2018-09-11T19:00:42.412Z,99.90
2018-09-11T19:03:10.945Z,99.90
2018-09-11T19:05:39.452Z,99.90
2018-09-11T19:08:08.537Z,99.90
2018-09-11T19:10:37.086Z,99.90
2018-09-11T19:13:05.988Z,99.90
2018-09-11T19:15:34.958Z,99.90
2018-09-11T19:18:03.505Z,99.90
2018-09-11T19:20:32.011Z,99.90
2018-09-11T19:23:00.558Z,99.90
2018-09-11T19:25:29.069Z,99.90
2018-09-11T19:27:57.595Z,99.90
2018-09-11T19:30:26.404Z,99.90
2018-09-11T19:32:54.937Z,99.90
2018-09-11T19:35:23.450Z,99.90
2018-09-11T19:37:52.009Z,99.90
2018-09-11T19:40:20.523Z,99.90
2018-09-11T19:42:49.965Z,99.90
2018-09-11T19:45:18.537Z,99.90
2018-09-11T19:47:47.355Z,99.90
2018-09-11T19:50:16.050Z,99.90
2018-09-11T19:52:47.625Z,99.90
2018-09-11T19:55:16.202Z,99.90
2018-09-11T19:57:44.973Z,99.90
2018-09-11T20:00:13.617Z,99.90
2018-09-11T20:02:42.189Z,99.90
2018-09-11T20:05:10.770Z,99.90
2018-09-11T20:07:39.358Z,99.90
2018-09-11T20:10:08.242Z,99.90
2018-09-11T20:12:36.797Z,99.90
2018-09-11T20:15:06.117Z,99.90
2018-09-11T20:17:34.848Z,99.90
2018-09-11T20:20:03.669Z,99.90
2018-09-11T20:22:32.237Z,99.90
2018-09-11T20:25:00.776Z,99.90
2018-09-11T20:27:29.331Z,99.90
2018-09-11T20:29:58.085Z,99.90
2018-09-11T20:32:26.732Z,99.90
2018-09-11T20:34:55.461Z,99.90
2018-09-11T20:37:24.896Z,99.90
2018-09-11T20:39:53.381Z,99.90
2018-09-11T20:42:21.897Z,99.90
2018-09-11T20:44:50.456Z,99.90
2018-09-11T20:47:18.948Z,99.90
2018-09-11T20:49:47.477Z,99.90
2018-09-11T20:52:16.021Z,99.90
2018-09-11T20:54:44.579Z,99.90
2018-09-11T20:57:13.085Z,99.90
2018-09-11T20:59:41.798Z,99.90
2018-09-11T21:02:10.325Z,99.90
2018-09-11T21:04:38.880Z,99.90
2018-09-11T21:07:07.521Z,99.90
2018-09-11T21:09:36.049Z,99.90
2018-09-11T21:12:04.589Z,99.90
2018-09-11T21:14:33.136Z,99.90
2018-09-11T21:17:01.673Z,99.90
2018-09-11T21:19:30.186Z,99.90
2018-09-11T21:21:58.729Z,99.90
2018-09-11T21:24:27.230Z,99.90
2018-09-11T21:26:55.753Z,99.90
2018-09-11T21:29:24.256Z,99.90
2018-09-11T21:31:52.780Z,99.90
2018-09-11T21:34:21.289Z,99.90
2018-09-11T21:36:49.961Z,99.90
2018-09-11T21:39:18.484Z,99.90
2018-09-11T21:41:47.017Z,99.90
2018-09-11T21:44:15.536Z,99.90
2018-09-11T21:46:44.065Z,99.90
2018-09-11T21:49:12.584Z,99.90
2018-09-11T21:51:41.137Z,99.90
2018-09-11T21:54:09.641Z,99.90
2018-09-11T21:56:38.181Z,99.90
2018-09-11T21:59:06.698Z,99.90
2018-09-11T22:01:40.615Z,99.90
2018-09-11T22:04:09.129Z,99.90
2018-09-11T22:06:37.681Z,99.90
2018-09-11T22:09:08.693Z,99.90
2018-09-11T22:11:37.310Z,99.90
2018-09-11T22:14:06.169Z,99.90
2018-09-11T22:16:34.698Z,99.90
2018-09-11T22:19:03.270Z,99.90
2018-09-11T22:21:31.773Z,99.90
2018-09-11T22:24:00.297Z,99.90
2018-09-11T22:26:28.821Z,99.90
2018-09-11T22:28:57.345Z,99.90
2018-09-11T22:31:25.849Z,99.90
2018-09-11T22:33:54.382Z,99.90
2018-09-11T22:36:22.917Z,99.90
2018-09-11T22:38:51.468Z,99.90
2018-09-11T22:41:20.001Z,99.90
2018-09-11T22:43:48.536Z,99.90
2018-09-11T22:46:17.082Z,99.90
2018-09-11T22:48:45.614Z,99.90
2018-09-11T22:51:14.123Z,99.90
2018-09-11T22:53:42.662Z,99.90
2018-09-11T22:56:11.181Z,99.90
2018-09-11T22:58:39.765Z,99.90
2018-09-11T23:01:08.261Z,99.90
2018-09-11T23:03:36.795Z,99.90
2018-09-11T23:06:05.305Z,99.90
2018-09-11T23:08:33.856Z,99.90
2018-09-11T23:11:02.465Z,99.90
2018-09-11T23:13:30.993Z,99.90
2018-09-11T23:15:59.501Z,99.90
2018-09-11T23:18:28.038Z,99.90
2018-09-11T23:20:56.552Z,99.90
2018-09-11T23:23:25.584Z,99.90
2018-09-11T23:25:54.097Z,99.90
2018-09-11T23:28:22.647Z,99.90
2018-09-11T23:30:51.172Z,99.90
2018-09-11T23:33:19.708Z,99.90
2018-09-11T23:35:48.217Z,99.90
2018-09-11T23:38:16.747Z,99.90
2018-09-11T23:40:45.268Z,99.90
2018-09-11T23:43:13.789Z,99.90
2018-09-11T23:45:42.289Z,99.90
2018-09-11T23:48:10.841Z,99.90
2018-09-11T23:50:39.361Z,99.90
2018-09-11T23:53:08.172Z,99.90
2018-09-11T23:55:36.685Z,99.90
2018-09-11T23:58:05.229Z,99.90
